Yorktown Heights, New York
Current Conditions -  °F | °C
As of 9:23 AM on Monday 26 Jan 2015 (Local Time) from KHPN Reporting Station
Light Snow Light Snow  
Wind Chill:   Ceiling: 3400
Heat Index: 19°   Visibility: 2mi
Dew Point:   Wind: 9mph
Humidity: 63%   Direction: 70°ENE
Pressure: 30"   Gusts: NA
Location:  41.27°N, 73.78°W
Report Text: KHPN 261423Z 07008KT 2SM -SN OVC034 M07/M13 A3000 RMK AO2 P0000 $
Loading
Personal Weather Stations






























Interactive Weather Map New forecast layout! Learn more

10-Day Weather Forecast

Advertisements
Track Severe Weather on mobile